sensor_id;sensor_type;location;lat;lon;timestamp;pressure;altitude;pressure_sealevel;temperature;humidity
73748;BME280;62056;52.130;5.428;2023-05-23T00:02:14;102117.56;;;15.06;78.01
73748;BME280;62056;52.130;5.428;2023-05-23T00:04:42;102120.25;;;15.06;78.07
73748;BME280;62056;52.130;5.428;2023-05-23T00:07:09;102118.91;;;15.08;77.98
73748;BME280;62056;52.130;5.428;2023-05-23T00:09:36;102128.28;;;15.06;78.49
73748;BME280;62056;52.130;5.428;2023-05-23T00:12:03;102125.94;;;15.04;78.34
73748;BME280;62056;52.130;5.428;2023-05-23T00:14:30;102130.19;;;15.05;77.91
73748;BME280;62056;52.130;5.428;2023-05-23T00:16:59;102124.06;;;15.00;78.88
73748;BME280;62056;52.130;5.428;2023-05-23T00:19:29;102117.41;;;14.97;79.01
73748;BME280;62056;52.130;5.428;2023-05-23T00:21:55;102123.34;;;14.94;78.60
73748;BME280;62056;52.130;5.428;2023-05-23T00:24:24;102132.03;;;14.81;80.11
73748;BME280;62056;52.130;5.428;2023-05-23T00:26:50;102136.03;;;14.83;79.39
73748;BME280;62056;52.130;5.428;2023-05-23T00:29:17;102133.34;;;14.83;79.78
73748;BME280;62056;52.130;5.428;2023-05-23T00:31:44;102138.19;;;14.81;79.74
73748;BME280;62056;52.130;5.428;2023-05-23T00:34:14;102147.31;;;14.80;79.33
73748;BME280;62056;52.130;5.428;2023-05-23T00:36:43;102149.81;;;14.71;79.67
73748;BME280;62056;52.130;5.428;2023-05-23T00:39:13;102149.91;;;14.61;80.12
73748;BME280;62056;52.130;5.428;2023-05-23T00:41:46;102154.53;;;14.50;80.69
73748;BME280;62056;52.130;5.428;2023-05-23T00:44:17;102156.69;;;14.48;80.89
73748;BME280;62056;52.130;5.428;2023-05-23T00:46:50;102151.88;;;14.45;81.50
73748;BME280;62056;52.130;5.428;2023-05-23T00:49:17;102162.34;;;14.42;81.39
73748;BME280;62056;52.130;5.428;2023-05-23T00:51:47;102158.63;;;14.37;82.00
73748;BME280;62056;52.130;5.428;2023-05-23T00:54:25;102152.00;;;14.30;82.93
73748;BME280;62056;52.130;5.428;2023-05-23T00:56:54;102165.91;;;14.27;82.51
73748;BME280;62056;52.130;5.428;2023-05-23T00:59:23;102160.03;;;14.25;82.74
73748;BME280;62056;52.130;5.428;2023-05-23T01:01:51;102161.66;;;14.26;82.45
73748;BME280;62056;52.130;5.428;2023-05-23T01:04:20;102156.91;;;14.17;82.74
73748;BME280;62056;52.130;5.428;2023-05-23T01:06:47;102163.88;;;14.13;81.92
73748;BME280;62056;52.130;5.428;2023-05-23T01:09:15;102159.84;;;14.16;82.61
73748;BME280;62056;52.130;5.428;2023-05-23T01:11:57;102167.13;;;14.10;83.49
73748;BME280;62056;52.130;5.428;2023-05-23T01:14:34;102154.81;;;14.09;83.21
73748;BME280;62056;52.130;5.428;2023-05-23T01:17:10;102148.41;;;14.10;83.74
73748;BME280;62056;52.130;5.428;2023-05-23T01:22:47;102158.28;;;14.10;83.50
73748;BME280;62056;52.130;5.428;2023-05-23T01:25:29;102162.03;;;14.09;83.39
73748;BME280;62056;52.130;5.428;2023-05-23T01:28:01;102164.16;;;14.12;83.11
73748;BME280;62056;52.130;5.428;2023-05-23T01:30:31;102158.84;;;14.07;83.91
73748;BME280;62056;52.130;5.428;2023-05-23T01:32:59;102155.38;;;14.06;83.57
73748;BME280;62056;52.130;5.428;2023-05-23T01:35:27;102161.53;;;14.07;84.18
73748;BME280;62056;52.130;5.428;2023-05-23T01:37:55;102151.56;;;14.12;82.65
73748;BME280;62056;52.130;5.428;2023-05-23T01:40:22;102153.19;;;14.13;83.34
73748;BME280;62056;52.130;5.428;2023-05-23T01:42:51;102155.28;;;14.16;83.16
73748;BME280;62056;52.130;5.428;2023-05-23T01:45:19;102155.84;;;14.13;83.16
73748;BME280;62056;52.130;5.428;2023-05-23T01:47:48;102156.91;;;14.12;83.37
73748;BME280;62056;52.130;5.428;2023-05-23T01:50:17;102157.75;;;14.13;83.37
73748;BME280;62056;52.130;5.428;2023-05-23T01:52:45;102162.28;;;14.12;82.85
73748;BME280;62056;52.130;5.428;2023-05-23T01:55:16;102160.94;;;14.15;82.40
73748;BME280;62056;52.130;5.428;2023-05-23T01:57:45;102163.31;;;14.16;82.63
73748;BME280;62056;52.130;5.428;2023-05-23T02:00:15;102158.78;;;14.17;83.14
73748;BME280;62056;52.130;5.428;2023-05-23T02:02:42;102154.53;;;14.11;83.23
73748;BME280;62056;52.130;5.428;2023-05-23T02:05:09;102171.94;;;14.08;83.31
73748;BME280;62056;52.130;5.428;2023-05-23T02:07:36;102166.81;;;14.12;82.63
73748;BME280;62056;52.130;5.428;2023-05-23T02:10:06;102171.38;;;14.11;82.81
73748;BME280;62056;52.130;5.428;2023-05-23T02:12:33;102178.88;;;14.09;82.72
73748;BME280;62056;52.130;5.428;2023-05-23T02:15:00;102181.56;;;14.09;82.69
73748;BME280;62056;52.130;5.428;2023-05-23T02:17:27;102179.44;;;14.06;82.85
73748;BME280;62056;52.130;5.428;2023-05-23T02:19:54;102178.69;;;14.01;82.89
73748;BME280;62056;52.130;5.428;2023-05-23T02:22:22;102181.34;;;14.01;82.93
73748;BME280;62056;52.130;5.428;2023-05-23T02:24:51;102183.22;;;14.00;82.55
73748;BME280;62056;52.130;5.428;2023-05-23T02:27:18;102180.81;;;13.99;83.42
73748;BME280;62056;52.130;5.428;2023-05-23T02:29:45;102184.28;;;14.04;82.44
73748;BME280;62056;52.130;5.428;2023-05-23T02:32:12;102188.53;;;14.05;82.68
73748;BME280;62056;52.130;5.428;2023-05-23T02:34:39;102191.78;;;14.02;82.96
73748;BME280;62056;52.130;5.428;2023-05-23T02:37:07;102188.28;;;14.02;82.82
73748;BME280;62056;52.130;5.428;2023-05-23T02:39:35;102194.44;;;14.02;82.47
73748;BME280;62056;52.130;5.428;2023-05-23T02:42:02;102192.31;;;13.99;82.79
73748;BME280;62056;52.130;5.428;2023-05-23T02:44:30;102192.31;;;13.99;82.49
73748;BME280;62056;52.130;5.428;2023-05-23T02:46:57;102190.44;;;14.00;83.11
73748;BME280;62056;52.130;5.428;2023-05-23T02:49:23;102200.59;;;14.03;82.53
73748;BME280;62056;52.130;5.428;2023-05-23T02:51:51;102202.75;;;14.01;82.39
73748;BME280;62056;52.130;5.428;2023-05-23T02:54:17;102204.06;;;14.03;82.73
73748;BME280;62056;52.130;5.428;2023-05-23T02:56:44;102201.91;;;14.05;82.32
73748;BME280;62056;52.130;5.428;2023-05-23T02:59:12;102201.66;;;14.07;81.74
73748;BME280;62056;52.130;5.428;2023-05-23T03:01:39;102205.09;;;14.07;81.50
73748;BME280;62056;52.130;5.428;2023-05-23T03:04:06;102207.00;;;14.07;81.87
73748;BME280;62056;52.130;5.428;2023-05-23T03:06:32;102199.75;;;14.07;81.59
73748;BME280;62056;52.130;5.428;2023-05-23T03:09:01;102197.88;;;14.08;81.92
73748;BME280;62056;52.130;5.428;2023-05-23T03:11:29;102203.78;;;14.05;81.57
73748;BME280;62056;52.130;5.428;2023-05-23T03:13:55;102191.47;;;14.04;81.84
73748;BME280;62056;52.130;5.428;2023-05-23T03:16:22;102196.81;;;14.04;81.76
73748;BME280;62056;52.130;5.428;2023-05-23T03:18:49;102197.41;;;14.01;82.03
73748;BME280;62056;52.130;5.428;2023-05-23T03:21:16;102197.13;;;14.02;81.96
73748;BME280;62056;52.130;5.428;2023-05-23T03:23:43;102205.44;;;13.95;81.93
73748;BME280;62056;52.130;5.428;2023-05-23T03:26:10;102211.88;;;13.94;81.81
73748;BME280;62056;52.130;5.428;2023-05-23T03:28:37;102209.72;;;13.91;81.59
73748;BME280;62056;52.130;5.428;2023-05-23T03:34:34;102204.09;;;13.93;81.67
73748;BME280;62056;52.130;5.428;2023-05-23T03:37:01;102208.66;;;13.92;81.82
73748;BME280;62056;52.130;5.428;2023-05-23T03:39:28;102211.34;;;13.92;81.89
73748;BME280;62056;52.130;5.428;2023-05-23T03:41:55;102227.91;;;13.89;81.49
73748;BME280;62056;52.130;5.428;2023-05-23T03:44:22;102221.50;;;13.90;81.76
73748;BME280;62056;52.130;5.428;2023-05-23T03:46:49;102224.97;;;13.91;81.03
73748;BME280;62056;52.130;5.428;2023-05-23T03:49:16;102221.81;;;13.84;81.82
73748;BME280;62056;52.130;5.428;2023-05-23T03:51:42;102226.91;;;13.80;82.08
73748;BME280;62056;52.130;5.428;2023-05-23T03:54:09;102230.13;;;13.77;81.66
73748;BME280;62056;52.130;5.428;2023-05-23T03:56:36;102223.75;;;13.73;81.19
73748;BME280;62056;52.130;5.428;2023-05-23T03:59:03;102230.41;;;13.70;81.12
73748;BME280;62056;52.130;5.428;2023-05-23T04:01:29;102241.94;;;13.66;81.29
73748;BME280;62056;52.130;5.428;2023-05-23T04:03:56;102235.53;;;13.62;81.39
73748;BME280;62056;52.130;5.428;2023-05-23T04:06:23;102245.72;;;13.54;81.87
73748;BME280;62056;52.130;5.428;2023-05-23T04:08:50;102236.63;;;13.50;82.23
73748;BME280;62056;52.130;5.428;2023-05-23T04:11:16;102242.78;;;13.51;81.40
73748;BME280;62056;52.130;5.428;2023-05-23T04:13:43;102251.34;;;13.43;82.65
73748;BME280;62056;52.130;5.428;2023-05-23T04:16:12;102253.47;;;13.46;82.40
73748;BME280;62056;52.130;5.428;2023-05-23T04:18:39;102245.44;;;13.46;82.40
73748;BME280;62056;52.130;5.428;2023-05-23T04:21:06;102248.66;;;13.48;81.57
73748;BME280;62056;52.130;5.428;2023-05-23T04:23:33;102248.66;;;13.48;82.18
73748;BME280;62056;52.130;5.428;2023-05-23T04:25:59;102258.81;;;13.51;81.30
73748;BME280;62056;52.130;5.428;2023-05-23T04:28:26;102266.56;;;13.52;81.23
73748;BME280;62056;52.130;5.428;2023-05-23T04:30:53;102264.94;;;13.51;82.04
73748;BME280;62056;52.130;5.428;2023-05-23T04:33:20;102271.63;;;13.49;81.53
73748;BME280;62056;52.130;5.428;2023-05-23T04:35:46;102270.84;;;13.43;82.46
73748;BME280;62056;52.130;5.428;2023-05-23T04:38:14;102278.63;;;13.40;81.71
73748;BME280;62056;52.130;5.428;2023-05-23T04:40:41;102283.44;;;13.38;81.57
73748;BME280;62056;52.130;5.428;2023-05-23T04:43:08;102271.91;;;13.37;81.71
73748;BME280;62056;52.130;5.428;2023-05-23T04:45:35;102277.03;;;13.33;81.38
73748;BME280;62056;52.130;5.428;2023-05-23T04:48:02;102281.25;;;13.24;81.78
73748;BME280;62056;52.130;5.428;2023-05-23T04:50:29;102292.75;;;13.25;81.55
73748;BME280;62056;52.130;5.428;2023-05-23T04:52:58;102284.72;;;13.25;81.00
73748;BME280;62056;52.130;5.428;2023-05-23T04:55:25;102283.41;;;13.27;81.71
73748;BME280;62056;52.130;5.428;2023-05-23T04:57:51;102289.31;;;13.29;81.59
73748;BME280;62056;52.130;5.428;2023-05-23T05:00:18;102292.22;;;13.23;81.35
73748;BME280;62056;52.130;5.428;2023-05-23T05:02:45;102295.69;;;13.23;81.06
73748;BME280;62056;52.130;5.428;2023-05-23T05:05:12;102306.38;;;13.08;81.08
73748;BME280;62056;52.130;5.428;2023-05-23T05:07:39;102312.78;;;13.12;81.11
73748;BME280;62056;52.130;5.428;2023-05-23T05:10:06;102314.66;;;13.11;81.37
73748;BME280;62056;52.130;5.428;2023-05-23T05:12:32;102322.16;;;13.04;80.74
73748;BME280;62056;52.130;5.428;2023-05-23T05:15:02;102318.94;;;13.02;80.34
73748;BME280;62056;52.130;5.428;2023-05-23T05:17:28;102329.34;;;12.99;80.08
73748;BME280;62056;52.130;5.428;2023-05-23T05:19:55;102333.34;;;12.91;79.75
73748;BME280;62056;52.130;5.428;2023-05-23T05:22:22;102334.41;;;12.90;79.98
73748;BME280;62056;52.130;5.428;2023-05-23T05:24:49;102329.06;;;12.90;79.57
73748;BME280;62056;52.130;5.428;2023-05-23T05:27:16;102340.28;;;12.92;78.95
73748;BME280;62056;52.130;5.428;2023-05-23T05:29:43;102348.81;;;12.89;77.96
73748;BME280;62056;52.130;5.428;2023-05-23T05:32:09;102347.75;;;12.90;78.65
73748;BME280;62056;52.130;5.428;2023-05-23T05:35:04;102353.09;;;12.90;77.90
73748;BME280;62056;52.130;5.428;2023-05-23T05:37:59;102358.69;;;12.88;77.05
73748;BME280;62056;52.130;5.428;2023-05-23T05:40:25;102354.44;;;12.92;77.33
73748;BME280;62056;52.130;5.428;2023-05-23T05:42:52;102369.38;;;12.93;76.83
73748;BME280;62056;52.130;5.428;2023-05-23T05:45:19;102368.06;;;12.96;76.37
73748;BME280;62056;52.130;5.428;2023-05-23T05:47:46;102368.06;;;12.96;76.70
73748;BME280;62056;52.130;5.428;2023-05-23T05:50:13;102366.19;;;12.96;75.58
73748;BME280;62056;52.130;5.428;2023-05-23T05:52:40;102372.59;;;12.95;75.98
73748;BME280;62056;52.130;5.428;2023-05-23T05:55:09;102371.28;;;12.98;75.35
73748;BME280;62056;52.130;5.428;2023-05-23T05:57:39;102378.19;;;12.99;75.67
73748;BME280;62056;52.130;5.428;2023-05-23T06:00:08;102383.25;;;12.95;76.35
73748;BME280;62056;52.130;5.428;2023-05-23T06:02:39;102381.13;;;12.92;75.65
73748;BME280;62056;52.130;5.428;2023-05-23T06:05:08;102394.75;;;13.01;75.21
73748;BME280;62056;52.130;5.428;2023-05-23T06:07:38;102391.03;;;12.92;74.57
73748;BME280;62056;52.130;5.428;2023-05-23T06:10:05;102402.75;;;12.86;74.43
73748;BME280;62056;52.130;5.428;2023-05-23T06:12:32;102399.53;;;12.84;75.10
73748;BME280;62056;52.130;5.428;2023-05-23T06:14:59;102408.34;;;12.89;74.18
73748;BME280;62056;52.130;5.428;2023-05-23T06:17:27;102393.94;;;12.90;74.42
73748;BME280;62056;52.130;5.428;2023-05-23T06:19:53;102401.69;;;12.92;73.52
73748;BME280;62056;52.130;5.428;2023-05-23T06:22:20;102410.22;;;12.89;73.74
73748;BME280;62056;52.130;5.428;2023-05-23T06:24:47;102399.81;;;12.87;74.14
73748;BME280;62056;52.130;5.428;2023-05-23T06:27:13;102409.44;;;12.88;72.98
73748;BME280;62056;52.130;5.428;2023-05-23T06:29:40;102400.38;;;12.94;74.16
73748;BME280;62056;52.130;5.428;2023-05-23T06:32:07;102401.41;;;12.88;73.18
73748;BME280;62056;52.130;5.428;2023-05-23T06:34:34;102405.13;;;12.87;73.53
73748;BME280;62056;52.130;5.428;2023-05-23T06:37:00;102410.75;;;12.86;74.43
73748;BME280;62056;52.130;5.428;2023-05-23T06:39:27;102401.41;;;12.93;75.21
73748;BME280;62056;52.130;5.428;2023-05-23T06:41:54;102398.25;;;13.07;75.36
73748;BME280;62056;52.130;5.428;2023-05-23T06:44:21;102401.72;;;13.07;75.94
73748;BME280;62056;52.130;5.428;2023-05-23T06:46:48;102408.13;;;13.16;74.44
73748;BME280;62056;52.130;5.428;2023-05-23T06:49:14;102400.94;;;13.17;74.82
73748;BME280;62056;52.130;5.428;2023-05-23T06:51:41;102404.16;;;13.19;75.66
73748;BME280;62056;52.130;5.428;2023-05-23T06:54:08;102415.91;;;13.28;75.94
73748;BME280;62056;52.130;5.428;2023-05-23T06:56:35;102414.88;;;13.29;76.02
73748;BME280;62056;52.130;5.428;2023-05-23T06:59:01;102411.16;;;13.35;76.00
73748;BME280;62056;52.130;5.428;2023-05-23T07:01:28;102417.03;;;13.38;74.43
73748;BME280;62056;52.130;5.428;2023-05-23T07:03:54;102418.09;;;13.31;75.05
73748;BME280;62056;52.130;5.428;2023-05-23T07:06:21;102425.56;;;13.29;74.88
73748;BME280;62056;52.130;5.428;2023-05-23T07:08:48;102428.75;;;13.36;75.29
73748;BME280;62056;52.130;5.428;2023-05-23T07:11:15;102421.03;;;13.40;75.49
73748;BME280;62056;52.130;5.428;2023-05-23T07:13:41;102425.84;;;13.48;75.20
73748;BME280;62056;52.130;5.428;2023-05-23T07:16:08;102436.00;;;13.46;75.33
73748;BME280;62056;52.130;5.428;2023-05-23T07:18:35;102445.06;;;13.35;76.28
73748;BME280;62056;52.130;5.428;2023-05-23T07:21:04;102447.47;;;13.31;75.95
73748;BME280;62056;52.130;5.428;2023-05-23T07:23:58;102444.81;;;13.42;76.10
73748;BME280;62056;52.130;5.428;2023-05-23T07:26:25;102448.00;;;13.49;75.23
73748;BME280;62056;52.130;5.428;2023-05-23T07:28:53;102452.84;;;13.42;73.63
73748;BME280;62056;52.130;5.428;2023-05-23T07:31:19;102449.06;;;13.48;73.35
73748;BME280;62056;52.130;5.428;2023-05-23T07:33:46;102442.94;;;13.63;72.41
73748;BME280;62056;52.130;5.428;2023-05-23T07:36:13;102450.44;;;13.50;69.92
73748;BME280;62056;52.130;5.428;2023-05-23T07:38:40;102455.50;;;13.57;68.61
73748;BME280;62056;52.130;5.428;2023-05-23T07:41:07;102438.13;;;13.75;69.17
73748;BME280;62056;52.130;5.428;2023-05-23T07:43:38;102455.22;;;13.74;68.86
73748;BME280;62056;52.130;5.428;2023-05-23T07:46:05;102455.50;;;13.77;69.11
73748;BME280;62056;52.130;5.428;2023-05-23T07:48:32;102451.75;;;13.79;67.50
73748;BME280;62056;52.130;5.428;2023-05-23T07:50:59;102455.78;;;13.86;66.39
73748;BME280;62056;52.130;5.428;2023-05-23T07:53:53;102457.13;;;13.73;65.03
73748;BME280;62056;52.130;5.428;2023-05-23T07:56:19;102466.72;;;13.74;65.37
73748;BME280;62056;52.130;5.428;2023-05-23T07:58:46;102459.78;;;13.94;65.82
73748;BME280;62056;52.130;5.428;2023-05-23T08:01:13;102464.03;;;13.95;64.67
73748;BME280;62056;52.130;5.428;2023-05-23T08:04:10;102460.03;;;13.97;65.47
73748;BME280;62056;52.130;5.428;2023-05-23T08:07:05;102459.78;;;14.04;65.56
73748;BME280;62056;52.130;5.428;2023-05-23T08:09:51;102464.84;;;14.11;64.08
73748;BME280;62056;52.130;5.428;2023-05-23T08:12:18;102465.88;;;14.10;64.95
73748;BME280;62056;52.130;5.428;2023-05-23T08:14:45;102471.25;;;14.05;63.85
73748;BME280;62056;52.130;5.428;2023-05-23T08:17:20;102472.03;;;14.26;64.76
73748;BME280;62056;52.130;5.428;2023-05-23T08:19:49;102469.91;;;14.17;64.30
73748;BME280;62056;52.130;5.428;2023-05-23T08:22:16;102464.25;;;14.24;64.27
73748;BME280;62056;52.130;5.428;2023-05-23T08:24:43;102468.25;;;14.27;63.89
73748;BME280;62056;52.130;5.428;2023-05-23T08:27:09;102476.81;;;14.34;62.92
73748;BME280;62056;52.130;5.428;2023-05-23T08:29:36;102473.09;;;14.20;62.93
73748;BME280;62056;52.130;5.428;2023-05-23T08:32:07;102479.50;;;14.29;63.86
73748;BME280;62056;52.130;5.428;2023-05-23T08:34:35;102478.41;;;14.40;63.72
73748;BME280;62056;52.130;5.428;2023-05-23T08:37:02;102488.81;;;14.52;63.58
73748;BME280;62056;52.130;5.428;2023-05-23T08:39:29;102478.38;;;14.45;61.44
73748;BME280;62056;52.130;5.428;2023-05-23T08:41:56;102490.19;;;14.39;62.60
73748;BME280;62056;52.130;5.428;2023-05-23T08:44:22;102494.69;;;14.64;61.89
73748;BME280;62056;52.130;5.428;2023-05-23T08:46:51;102494.16;;;14.52;62.46
73748;BME280;62056;52.130;5.428;2023-05-23T08:49:18;102494.19;;;14.47;62.08
73748;BME280;62056;52.130;5.428;2023-05-23T08:51:45;102495.25;;;14.56;61.33
73748;BME280;62056;52.130;5.428;2023-05-23T08:54:13;102504.06;;;14.62;60.61
73748;BME280;62056;52.130;5.428;2023-05-23T08:56:43;102512.63;;;14.64;60.39
73748;BME280;62056;52.130;5.428;2023-05-23T08:59:11;102501.34;;;14.72;60.65
73748;BME280;62056;52.130;5.428;2023-05-23T09:01:40;102504.63;;;14.43;60.70
73748;BME280;62056;52.130;5.428;2023-05-23T09:04:08;102509.69;;;14.50;60.94
73748;BME280;62056;52.130;5.428;2023-05-23T09:06:35;102508.63;;;14.56;60.81
73748;BME280;62056;52.130;5.428;2023-05-23T09:09:02;102510.47;;;14.66;60.94
73748;BME280;62056;52.130;5.428;2023-05-23T09:11:29;102505.69;;;14.63;60.96
73748;BME280;62056;52.130;5.428;2023-05-23T09:14:01;102517.44;;;14.72;60.02
73748;BME280;62056;52.130;5.428;2023-05-23T09:16:33;102522.78;;;14.72;59.07
73748;BME280;62056;52.130;5.428;2023-05-23T09:19:09;102519.25;;;14.87;57.70
73748;BME280;62056;52.130;5.428;2023-05-23T09:21:36;102520.03;;;14.92;57.30
73748;BME280;62056;52.130;5.428;2023-05-23T09:24:04;102531.97;;;15.10;56.75
73748;BME280;62056;52.130;5.428;2023-05-23T09:26:31;102528.19;;;15.22;57.57
73748;BME280;62056;52.130;5.428;2023-05-23T09:28:57;102530.31;;;15.25;55.98
73748;BME280;62056;52.130;5.428;2023-05-23T09:31:27;102531.56;;;15.43;56.54
73748;BME280;62056;52.130;5.428;2023-05-23T09:33:57;102534.06;;;15.73;55.05
73748;BME280;62056;52.130;5.428;2023-05-23T09:36:27;102527.25;;;15.47;55.13
73748;BME280;62056;52.130;5.428;2023-05-23T09:39:02;102529.16;;;15.41;56.48
73748;BME280;62056;52.130;5.428;2023-05-23T09:41:34;102535.81;;;15.44;56.90
73748;BME280;62056;52.130;5.428;2023-05-23T09:44:06;102533.72;;;15.41;56.95
73748;BME280;62056;52.130;5.428;2023-05-23T09:46:37;102533.06;;;15.59;56.73
73748;BME280;62056;52.130;5.428;2023-05-23T09:49:14;102534.44;;;15.51;55.71
73748;BME280;62056;52.130;5.428;2023-05-23T09:51:42;102530.41;;;15.54;54.86
73748;BME280;62056;52.130;5.428;2023-05-23T09:54:09;102533.34;;;15.57;54.43
73748;BME280;62056;52.130;5.428;2023-05-23T09:56:39;102528.81;;;15.53;54.86
73748;BME280;62056;52.130;5.428;2023-05-23T09:59:12;102537.41;;;15.50;54.30
73748;BME280;62056;52.130;5.428;2023-05-23T10:01:41;102539.19;;;15.65;54.44
73748;BME280;62056;52.130;5.428;2023-05-23T10:04:11;102551.66;;;15.90;54.65
73748;BME280;62056;52.130;5.428;2023-05-23T10:06:40;102553.28;;;15.86;54.71
73748;BME280;62056;52.130;5.428;2023-05-23T10:09:12;102550.94;;;15.74;54.30
73748;BME280;62056;52.130;5.428;2023-05-23T10:12:15;102553.56;;;15.84;54.25
73748;BME280;62056;52.130;5.428;2023-05-23T10:14:51;102559.19;;;15.88;52.52
73748;BME280;62056;52.130;5.428;2023-05-23T10:17:27;102550.44;;;16.06;52.88
73748;BME280;62056;52.130;5.428;2023-05-23T10:20:07;102545.81;;;16.12;51.84
73748;BME280;62056;52.130;5.428;2023-05-23T10:22:36;102554.34;;;16.19;52.36
73748;BME280;62056;52.130;5.428;2023-05-23T10:25:05;102544.31;;;16.30;52.81
73748;BME280;62056;52.130;5.428;2023-05-23T10:27:34;102564.25;;;16.18;53.85
73748;BME280;62056;52.130;5.428;2023-05-23T10:30:04;102562.50;;;16.04;54.82
73748;BME280;62056;52.130;5.428;2023-05-23T10:32:33;102563.34;;;16.04;54.33
73748;BME280;62056;52.130;5.428;2023-05-23T10:35:21;102563.81;;;16.11;54.44
73748;BME280;62056;52.130;5.428;2023-05-23T10:38:09;102552.19;;;16.21;53.99
73748;BME280;62056;52.130;5.428;2023-05-23T10:40:54;102570.03;;;16.07;53.42
73748;BME280;62056;52.130;5.428;2023-05-23T10:43:39;102558.44;;;16.11;52.76
73748;BME280;62056;52.130;5.428;2023-05-23T10:46:08;102560.44;;;15.95;53.48
73748;BME280;62056;52.130;5.428;2023-05-23T10:48:42;102563.09;;;16.01;53.33
73748;BME280;62056;52.130;5.428;2023-05-23T10:51:14;102570.28;;;16.05;53.33
73748;BME280;62056;52.130;5.428;2023-05-23T10:53:43;102569.09;;;16.22;52.85
73748;BME280;62056;52.130;5.428;2023-05-23T10:56:18;102570.66;;;16.23;52.97
73748;BME280;62056;52.130;5.428;2023-05-23T10:58:55;102579.09;;;16.11;53.26
73748;BME280;62056;52.130;5.428;2023-05-23T11:01:23;102574.00;;;16.09;53.33
73748;BME280;62056;52.130;5.428;2023-05-23T11:04:24;102579.81;;;16.22;53.82
73748;BME280;62056;52.130;5.428;2023-05-23T11:06:54;102576.97;;;16.08;52.80
73748;BME280;62056;52.130;5.428;2023-05-23T11:09:21;102579.25;;;16.25;52.77
73748;BME280;62056;52.130;5.428;2023-05-23T11:12:06;102582.53;;;16.16;51.44
73748;BME280;62056;52.130;5.428;2023-05-23T11:17:16;102561.63;;;16.43;51.56
73748;BME280;62056;52.130;5.428;2023-05-23T11:22:29;102566.41;;;16.46;50.53
73748;BME280;62056;52.130;5.428;2023-05-23T11:24:57;102568.84;;;16.47;49.36
73748;BME280;62056;52.130;5.428;2023-05-23T11:27:30;102573.66;;;16.21;49.50
73748;BME280;62056;52.130;5.428;2023-05-23T11:30:00;102576.78;;;16.33;49.64
73748;BME280;62056;52.130;5.428;2023-05-23T11:32:28;102573.69;;;16.45;49.23
73748;BME280;62056;52.130;5.428;2023-05-23T11:35:01;102586.22;;;16.55;49.65
73748;BME280;62056;52.130;5.428;2023-05-23T11:37:29;102580.78;;;16.31;50.64
73748;BME280;62056;52.130;5.428;2023-05-23T11:39:56;102575.81;;;16.48;51.52
73748;BME280;62056;52.130;5.428;2023-05-23T11:42:24;102582.34;;;16.66;51.15
73748;BME280;62056;52.130;5.428;2023-05-23T11:44:51;102581.91;;;16.54;50.39
73748;BME280;62056;52.130;5.428;2023-05-23T11:47:18;102594.13;;;16.41;51.16
73748;BME280;62056;52.130;5.428;2023-05-23T11:49:46;102579.13;;;16.64;50.39
73748;BME280;62056;52.130;5.428;2023-05-23T11:52:13;102572.28;;;16.53;50.13
73748;BME280;62056;52.130;5.428;2023-05-23T11:54:41;102575.88;;;16.67;50.23
73748;BME280;62056;52.130;5.428;2023-05-23T11:57:12;102585.47;;;16.49;49.96
73748;BME280;62056;52.130;5.428;2023-05-23T11:59:39;102591.09;;;16.48;50.00
73748;BME280;62056;52.130;5.428;2023-05-23T12:02:06;102586.94;;;16.36;50.29
73748;BME280;62056;52.130;5.428;2023-05-23T12:04:34;102589.28;;;16.43;49.34
73748;BME280;62056;52.130;5.428;2023-05-23T12:07:05;102594.00;;;16.56;49.54
73748;BME280;62056;52.130;5.428;2023-05-23T12:09:41;102598.38;;;16.47;50.24
73748;BME280;62056;52.130;5.428;2023-05-23T12:12:08;102592.97;;;16.52;49.87
73748;BME280;62056;52.130;5.428;2023-05-23T12:14:35;102592.13;;;16.52;49.11
73748;BME280;62056;52.130;5.428;2023-05-23T12:17:04;102583.34;;;16.70;47.39
73748;BME280;62056;52.130;5.428;2023-05-23T12:19:31;102583.66;;;16.69;47.78
73748;BME280;62056;52.130;5.428;2023-05-23T12:22:05;102591.63;;;16.50;46.49
73748;BME280;62056;52.130;5.428;2023-05-23T12:24:33;102594.00;;;16.56;46.53
73748;BME280;62056;52.130;5.428;2023-05-23T12:27:01;102595.94;;;16.51;47.66
73748;BME280;62056;52.130;5.428;2023-05-23T12:29:30;102606.06;;;16.59;48.26
73748;BME280;62056;52.130;5.428;2023-05-23T12:32:02;102587.00;;;16.55;47.93
73748;BME280;62056;52.130;5.428;2023-05-23T12:34:29;102591.84;;;16.58;48.21
73748;BME280;62056;52.130;5.428;2023-05-23T12:36:57;102600.78;;;16.49;47.31
73748;BME280;62056;52.130;5.428;2023-05-23T12:39:43;102595.22;;;16.40;47.86
73748;BME280;62056;52.130;5.428;2023-05-23T12:42:11;102601.47;;;16.30;48.69
73748;BME280;62056;52.130;5.428;2023-05-23T12:44:40;102605.81;;;16.55;48.42
73748;BME280;62056;52.130;5.428;2023-05-23T12:47:08;102605.78;;;16.61;47.45
73748;BME280;62056;52.130;5.428;2023-05-23T12:49:36;102616.13;;;16.72;46.42
73748;BME280;62056;52.130;5.428;2023-05-23T12:52:03;102619.38;;;16.69;47.30
73748;BME280;62056;52.130;5.428;2023-05-23T12:54:30;102603.81;;;16.42;48.26
73748;BME280;62056;52.130;5.428;2023-05-23T12:56:57;102610.63;;;16.58;48.04
73748;BME280;62056;52.130;5.428;2023-05-23T12:59:24;102616.72;;;16.35;49.27
73748;BME280;62056;52.130;5.428;2023-05-23T13:01:51;102621.75;;;16.47;48.96
73748;BME280;62056;52.130;5.428;2023-05-23T13:04:18;102606.69;;;16.46;48.50
73748;BME280;62056;52.130;5.428;2023-05-23T13:06:45;102607.44;;;16.56;47.53
73748;BME280;62056;52.130;5.428;2023-05-23T13:09:12;102601.31;;;16.46;46.16
73748;BME280;62056;52.130;5.428;2023-05-23T13:11:40;102599.22;;;16.43;47.21
73748;BME280;62056;52.130;5.428;2023-05-23T13:14:06;102613.88;;;16.26;47.29